Time;durP1;ratioP1;P1;durP2;ratioP2;P2;SDS_P1;SDS_P2;PMS_P1;PMS_P2;Temp;Humidity;BMP_temperature;BMP_pressure;BME280_temperature;BME280_humidity;BME280_pressure;Samples;Min_cycle;Max_cycle;Signal;HPM_P1;HPM_P2
2022/12/15 00:40:24;;;;;;;17.92;11.65;;;;;;;-2.10;75.89;99724.75;1827338;78;21025;-78
2022/12/15 00:42:50;;;;;;;19.80;12.18;;;;;;;-2.10;75.56;99716.47;1774591;80;21048;-79
2022/12/15 00:45:17;;;;;;;20.95;11.73;;;;;;;-2.08;75.36;99702.89;1774920;80;21024;-81
2022/12/15 00:47:43;;;;;;;16.05;11.48;;;;;;;-2.12;75.26;99698.80;1776254;80;20934;-76
2022/12/15 01:20:33;;;;;;;17.02;11.85;;;;;;;-2.06;74.41;99674.17;1833540;78;21057;-79
2022/12/15 01:22:57;;;;;;;19.00;11.63;;;;;;;-2.05;74.57;99675.83;1834589;78;21050;-78
2022/12/15 01:25:24;;;;;;;16.27;11.78;;;;;;;-2.03;74.56;99672.67;1811616;78;20998;-78
2022/12/15 01:27:51;;;;;;;19.48;12.95;;;;;;;-2.03;74.73;99689.16;1810836;79;21502;-79
2022/12/15 01:30:21;;;;;;;16.73;11.38;;;;;;;-2.01;74.31;99674.28;1810692;79;21584;-79
2022/12/15 01:32:48;;;;;;;17.65;11.73;;;;;;;-2.03;74.73;99668.77;1810473;79;20990;-78
2022/12/15 01:35:16;;;;;;;17.77;12.40;;;;;;;-2.02;74.96;99663.48;1798217;79;21062;-81
2022/12/15 01:37:43;;;;;;;18.20;12.80;;;;;;;-2.01;75.38;99658.66;1808690;79;21021;-77
2022/12/15 01:42:59;;;;;;;17.73;12.00;;;;;;;-2.01;76.07;99659.10;1780841;80;21233;-78
2022/12/15 01:45:32;;;;;;;18.27;11.70;;;;;;;-2.05;76.64;99655.02;1780711;80;21072;-79
2022/12/15 01:48:08;;;;;;;16.50;11.43;;;;;;;-2.10;76.85;99651.39;1781352;80;21017;-78
2022/12/15 01:50:42;;;;;;;16.65;11.03;;;;;;;-2.16;76.77;99632.23;1782683;80;20990;-81
2022/12/15 01:53:09;;;;;;;18.42;12.00;;;;;;;-2.24;76.82;99626.17;1782507;80;21096;-79
2022/12/15 01:55:36;;;;;;;17.95;12.43;;;;;;;-2.23;76.99;99618.72;1781832;80;21150;-77
2022/12/15 01:58:05;;;;;;;16.70;11.33;;;;;;;-2.31;76.99;99614.44;1794393;79;21069;-76
2022/12/15 02:00:32;;;;;;;17.85;11.03;;;;;;;-2.27;76.79;99620.30;1812984;79;21011;-76
2022/12/15 02:02:58;;;;;;;16.70;10.60;;;;;;;-2.29;76.37;99603.47;1806533;78;21106;-79
2022/12/15 02:05:25;;;;;;;14.73;10.20;;;;;;;-2.24;75.75;99594.08;1805499;79;21498;-79
2022/12/15 02:07:51;;;;;;;16.73;11.43;;;;;;;-2.24;74.88;99593.64;1805491;79;21921;-78
2022/12/15 02:10:18;;;;;;;15.03;10.23;;;;;;;-2.21;75.12;99582.20;1805209;79;21629;-76
2022/12/15 02:13:05;;;;;;;18.57;11.35;;;;;;;-2.23;74.85;99591.39;1805082;79;21081;-78
2022/12/15 02:15:40;;;;;;;17.98;11.97;;;;;;;-2.23;75.33;99582.76;1790998;79;21042;-77
2022/12/15 02:18:21;;;;;;;13.48;9.75;;;;;;;-2.27;75.79;99589.91;1814828;79;21061;-77
2022/12/15 02:21:12;;;;;;;19.48;12.47;;;;;;;-2.34;76.36;99558.66;1816966;79;21148;-77
2022/12/15 02:24:02;;;;;;;17.73;12.25;;;;;;;-2.30;76.94;99565.83;1813313;79;21185;-75
2022/12/15 02:26:58;;;;;;;16.90;12.03;;;;;;;-2.36;77.82;99557.91;1812906;79;21104;-73
2022/12/15 02:29:45;;;;;;;19.48;10.95;;;;;;;-2.38;78.43;99562.38;1812853;79;21094;-74
2022/12/15 02:32:29;;;;;;;15.85;10.25;;;;;;;-2.42;79.27;99566.09;1797164;79;21033;-75
2022/12/15 02:35:06;;;;;;;18.12;11.88;;;;;;;-2.43;79.66;99578.27;1781078;80;21367;-79
2022/12/15 02:37:36;;;;;;;18.42;11.73;;;;;;;-2.46;80.15;99578.91;1780722;80;20981;-78
2022/12/15 02:40:06;;;;;;;18.95;12.03;;;;;;;-2.45;80.67;99572.78;1780984;79;21088;-77
2022/12/15 02:42:32;;;;;;;15.70;11.10;;;;;;;-2.50;80.81;99569.13;1805778;79;21503;-78
2022/12/15 02:45:07;;;;;;;18.57;10.58;;;;;;;-2.48;80.35;99588.56;1805390;79;20998;-79
2022/12/15 02:48:04;;;;;;;15.78;10.20;;;;;;;-2.49;80.07;99574.73;1805398;79;21045;-82
2022/12/15 02:50:39;;;;;;;18.12;11.35;;;;;;;-2.49;79.99;99577.77;1782711;80;20975;-78
2022/12/15 02:53:21;;;;;;;18.60;11.78;;;;;;;-2.50;79.84;99569.13;1781336;80;21061;-76
2022/12/15 02:56:11;;;;;;;16.52;10.93;;;;;;;-2.49;80.70;99566.06;1782178;80;21050;-78
2022/12/15 02:59:00;;;;;;;15.38;11.28;;;;;;;-2.52;80.96;99546.28;1782003;80;21605;-82
2022/12/15 03:01:35;;;;;;;17.37;10.60;;;;;;;-2.52;81.07;99568.86;1781376;80;21202;-77
2022/12/15 03:04:04;;;;;;;14.53;10.13;;;;;;;-2.60;81.33;99540.22;1801964;79;21012;-80
2022/12/15 03:06:34;;;;;;;15.38;10.05;;;;;;;-2.60;81.39;99549.33;1795827;79;21589;-80
2022/12/15 03:09:01;;;;;;;21.30;11.65;;;;;;;-2.60;81.85;99531.13;1782346;80;21084;-79
2022/12/15 03:11:27;;;;;;;14.65;10.80;;;;;;;-2.66;82.98;99540.59;1801564;79;21014;-80
2022/12/15 03:13:57;;;;;;;15.65;9.53;;;;;;;-2.65;83.84;99538.34;1804760;79;21483;-78
2022/12/15 03:16:24;;;;;;;16.27;10.90;;;;;;;-2.69;83.81;99558.13;1805103;79;20987;-79
2022/12/15 03:18:51;;;;;;;16.65;10.05;;;;;;;-2.65;83.94;99540.11;1807698;79;21042;-78
2022/12/15 03:21:18;;;;;;;14.93;10.30;;;;;;;-2.69;83.65;99534.25;1808566;79;21022;-76
2022/12/15 03:23:44;;;;;;;16.02;10.75;;;;;;;-2.68;85.40;99531.21;1814203;79;20931;-80
2022/12/15 03:26:11;;;;;;;14.98;9.63;;;;;;;-2.71;86.16;99511.40;1814424;79;21170;-79
2022/12/15 03:28:38;;;;;;;15.75;9.55;;;;;;;-2.69;86.17;99528.22;1813287;79;21335;-78
2022/12/15 03:31:04;;;;;;;15.85;9.45;;;;;;;-2.68;85.46;99522.11;1813873;79;21010;-82
2022/12/15 03:33:32;;;;;;;13.95;9.85;;;;;;;-2.71;85.55;99515.30;1813015;79;21506;-80
2022/12/15 03:36:00;;;;;;;14.13;9.28;;;;;;;-2.69;85.38;99493.11;1812999;79;21045;-79
2022/12/15 03:38:26;;;;;;;14.10;8.38;;;;;;;-2.72;85.60;99526.64;1813764;79;21084;-78
2022/12/15 03:40:52;;;;;;;15.55;9.10;;;;;;;-2.74;85.59;99497.30;1813705;78;21029;-81
2022/12/15 03:43:19;;;;;;;14.70;10.03;;;;;;;-2.73;86.23;99497.66;1813213;79;21054;-79
2022/12/15 03:45:46;;;;;;;15.28;9.90;;;;;;;-2.78;86.85;99478.91;1813924;79;21073;-80
2022/12/15 03:48:14;;;;;;;15.72;9.03;;;;;;;-2.80;87.18;99479.42;1816627;79;21010;-80
2022/12/15 03:50:41;;;;;;;13.25;8.88;;;;;;;-2.80;87.34;99469.03;1816718;79;21227;-81
2022/12/15 03:53:07;;;;;;;15.45;9.80;;;;;;;-2.78;87.03;99481.03;1814485;79;21505;-80
2022/12/15 03:55:34;;;;;;;14.30;8.93;;;;;;;-2.82;87.60;99491.24;1813102;79;21490;-77
2022/12/15 03:58:01;;;;;;;13.90;9.55;;;;;;;-2.80;88.07;99455.59;1811658;78;21010;-77
2022/12/15 04:00:28;;;;;;;14.80;9.75;;;;;;;-2.79;88.15;99481.95;1810597;79;21061;-78
2022/12/15 04:02:54;;;;;;;13.18;8.30;;;;;;;-2.89;88.31;99439.69;1810596;79;21091;-77
2022/12/15 04:05:26;;;;;;;14.83;9.35;;;;;;;-2.80;88.57;99469.03;1810666;78;21054;-78
2022/12/15 04:07:54;;;;;;;14.55;9.80;;;;;;;-2.79;88.34;99462.91;1811084;79;21049;-77
2022/12/15 04:10:23;;;;;;;15.23;10.80;;;;;;;-2.77;88.39;99476.19;1810642;79;21545;-78
2022/12/15 04:12:58;;;;;;;13.18;8.78;;;;;;;-2.78;88.79;99481.50;1810765;79;20982;-73
2022/12/15 04:15:25;;;;;;;14.40;9.90;;;;;;;-2.74;88.45;99443.13;1811661;78;21060;-75
2022/12/15 04:17:52;;;;;;;14.23;9.30;;;;;;;-2.73;88.62;99437.02;1811828;79;20896;-76
2022/12/15 04:20:19;;;;;;;15.38;9.75;;;;;;;-2.73;88.83;99433.12;1812250;79;21494;-76
2022/12/15 04:22:47;;;;;;;15.13;9.80;;;;;;;-2.73;88.29;99433.12;1810959;79;21025;-76
2022/12/15 05:31:51;;;;;;;14.00;9.25;;;;;;;-2.59;89.27;99345.55;1785611;79;21045;-78
2022/12/15 05:34:25;;;;;;;13.95;10.05;;;;;;;-2.53;89.19;99336.97;1796720;79;21027;-80
2022/12/15 05:36:52;;;;;;;13.88;10.03;;;;;;;-2.52;89.15;99323.05;1775003;80;21120;-77
2022/12/15 05:39:19;;;;;;;14.13;9.93;;;;;;;-2.47;88.87;99329.64;1780221;79;20983;-78
2022/12/15 05:41:45;;;;;;;14.47;9.33;;;;;;;-2.48;89.07;99315.42;1784379;77;21218;-77
2022/12/15 05:44:12;;;;;;;12.37;9.00;;;;;;;-2.48;89.27;99320.63;1784770;79;20975;-75
2022/12/15 05:46:38;;;;;;;18.82;11.28;;;;;;;-2.41;89.15;99306.31;1785045;79;21052;-74
2022/12/15 05:49:06;;;;;;;14.38;8.85;;;;;;;-2.41;89.23;99311.05;1784761;80;21238;-74
2022/12/15 05:51:39;;;;;;;15.05;10.38;;;;;;;-2.37;89.06;99310.39;1776800;79;20963;-75
2022/12/15 05:54:07;;;;;;;13.43;9.63;;;;;;;-2.33;89.01;99305.83;1755840;79;20972;-74
2022/12/15 05:56:34;;;;;;;16.52;10.55;;;;;;;-2.33;89.40;99316.23;1801590;78;20915;-74
2022/12/15 05:59:01;;;;;;;13.90;9.95;;;;;;;-2.35;89.90;99315.03;1816903;78;21119;-75
2022/12/15 06:01:33;;;;;;;16.12;9.95;;;;;;;-2.33;90.07;99314.47;1808390;77;21118;-75
2022/12/15 06:04:00;;;;;;;14.87;10.00;;;;;;;-2.37;90.38;99327.30;1794923;78;20998;-74
2022/12/15 06:06:28;;;;;;;14.63;10.08;;;;;;;-2.31;90.28;99332.59;1814762;77;21216;-75
2022/12/15 06:08:54;;;;;;;15.25;9.70;;;;;;;-2.30;90.34;99324.69;1776247;79;20933;-74
2022/12/15 06:11:21;;;;;;;15.43;10.68;;;;;;;-2.27;90.19;99358.31;1776086;79;20956;-74
2022/12/15 06:13:47;;;;;;;12.58;9.33;;;;;;;-2.28;90.05;99350.15;1783374;79;21160;-74
2022/12/15 06:16:19;;;;;;;14.07;10.23;;;;;;;-2.26;90.49;99344.82;1784596;79;21011;-75
2022/12/15 06:18:52;;;;;;;14.53;10.43;;;;;;;-2.27;90.57;99328.86;1787630;79;21054;-76
2022/12/15 06:21:22;;;;;;;;;;;;;;;-2.26;90.54;99297.54;1819827;77;20944;-76
2022/12/15 06:23:49;;;;;;;16.62;10.68;;;;;;;-2.23;90.82;99355.88;1816519;77;20141;-77
2022/12/15 06:26:27;;;;;;;15.85;10.10;;;;;;;-2.24;93.27;99305.22;1816055;77;21177;-75
2022/12/15 06:28:58;;;;;;;14.80;9.93;;;;;;;-2.25;94.31;99293.16;1817059;77;20951;-75
2022/12/15 06:31:25;;;;;;;14.83;10.35;;;;;;;-2.20;94.49;99300.22;1782744;78;20916;-78
2022/12/15 06:33:52;;;;;;;14.18;10.72;;;;;;;-2.15;93.95;99303.34;1778860;78;21380;-77
2022/12/15 06:36:19;;;;;;;16.12;11.38;;;;;;;-2.17;93.75;99312.55;1816676;76;20899;-76
2022/12/15 06:38:46;;;;;;;14.98;10.63;;;;;;;-2.14;93.75;99318.48;1794681;76;21166;-75
2022/12/15 06:41:18;;;;;;;18.50;11.00;;;;;;;-2.14;94.03;99308.08;1785807;78;20967;-78
2022/12/15 06:43:52;;;;;;;16.62;10.65;;;;;;;-2.14;94.24;99279.45;1807346;78;20946;-78
2022/12/15 06:46:18;;;;;;;17.35;11.43;;;;;;;-2.12;94.31;99298.43;1798154;76;20982;-78
2022/12/15 06:48:45;;;;;;;15.98;11.48;;;;;;;-2.13;94.42;99327.98;1794814;78;20940;-78
2022/12/15 06:51:13;;;;;;;17.12;11.08;;;;;;;-2.08;94.53;99296.82;1805911;79;21187;-77
2022/12/15 06:53:40;;;;;;;16.35;11.00;;;;;;;-2.10;94.49;99282.25;1821113;78;21002;-78
2022/12/15 06:56:14;;;;;;;16.80;11.93;;;;;;;-2.06;94.33;99287.62;1823550;78;20982;-78
2022/12/15 06:58:40;;;;;;;19.60;12.28;;;;;;;-2.06;97.29;99280.64;1802222;78;21017;-75
2022/12/15 07:01:07;;;;;;;17.95;12.28;;;;;;;-2.05;98.87;99291.87;1824412;78;20994;-76
2022/12/15 07:03:35;;;;;;;15.90;10.78;;;;;;;-2.02;98.57;99310.73;1773429;80;20978;-75
2022/12/15 07:06:05;;;;;;;15.70;11.50;;;;;;;-2.00;98.84;99319.28;1747339;81;21046;-75
2022/12/15 07:08:31;;;;;;;16.37;11.95;;;;;;;-2.00;98.83;99295.85;1729027;83;21046;-77
2022/12/15 07:11:01;;;;;;;17.35;11.18;;;;;;;-1.98;98.19;99280.97;1747902;81;21050;-77
2022/12/15 07:13:28;;;;;;;18.37;11.93;;;;;;;-1.99;98.34;99310.55;1784412;77;21057;-77
2022/12/15 07:16:00;;;;;;;17.05;12.25;;;;;;;-1.96;97.85;99293.89;1810663;78;21115;-77
2022/12/15 07:18:28;;;;;;;17.65;12.45;;;;;;;-1.99;97.75;99292.33;1792647;77;20989;-75
2022/12/15 07:20:56;;;;;;;16.20;11.83;;;;;;;-1.95;98.49;99302.52;1826772;77;20920;-76
2022/12/15 07:23:23;;;;;;;17.07;10.88;;;;;;;-1.97;99.28;99305.25;1812957;77;21062;-77
2022/12/15 07:25:49;;;;;;;20.68;13.45;;;;;;;-1.90;99.15;99307.80;1788340;80;20986;-78
2022/12/15 07:28:20;;;;;;;21.30;13.98;;;;;;;-1.90;98.31;99315.61;1788036;80;21931;-81
2022/12/15 07:30:49;;;;;;;15.88;11.85;;;;;;;-1.88;98.21;99303.33;1789105;79;20990;-80
2022/12/15 07:33:16;;;;;;;19.00;11.93;;;;;;;-1.86;97.26;99298.03;1791437;78;20919;-82
2022/12/15 07:35:42;;;;;;;19.50;12.70;;;;;;;-1.86;96.65;99295.42;1794277;78;20968;-82
2022/12/15 07:38:10;;;;;;;20.95;12.82;;;;;;;-1.84;96.60;99285.74;1776883;78;20959;-83
2022/12/15 07:40:37;;;;;;;19.17;12.65;;;;;;;-1.83;96.46;99292.63;1802716;78;21155;-83
2022/12/15 07:43:07;;;;;;;20.25;13.32;;;;;;;-1.80;96.40;99288.06;1806673;78;21195;-83
2022/12/15 07:45:35;;;;;;;20.40;13.38;;;;;;;-1.76;96.59;99278.25;1778620;78;20979;-83
2022/12/15 07:48:03;;;;;;;23.57;12.45;;;;;;;-1.75;97.65;99290.83;1807125;78;20995;-85
2022/12/15 07:50:30;;;;;;;18.32;13.10;;;;;;;-1.71;98.03;99277.49;1778373;78;21136;-82
2022/12/15 07:52:57;;;;;;;18.62;13.03;;;;;;;-1.69;97.81;99294.33;1807270;78;21242;-84
2022/12/15 07:55:25;;;;;;;17.85;13.20;;;;;;;-1.69;97.67;99280.83;1778105;78;20869;-83
2022/12/15 07:57:51;;;;;;;19.40;13.48;;;;;;;-1.64;97.28;99279.23;1806989;78;20959;-82
2022/12/15 08:00:18;;;;;;;17.67;13.25;;;;;;;-1.56;97.29;99287.38;1798237;77;21029;-81
2022/12/15 08:02:45;;;;;;;21.60;12.43;;;;;;;-1.52;97.46;99321.88;1800272;79;21057;-84
2022/12/15 08:05:11;;;;;;;19.10;12.28;;;;;;;-1.46;96.92;99331.88;1789450;79;21897;-82
2022/12/15 08:07:39;;;;;;;20.12;12.75;;;;;;;-1.43;95.74;99311.67;1799801;79;21005;-83
2022/12/15 08:10:08;;;;;;;19.17;13.55;;;;;;;-1.39;95.23;99308.39;1783936;80;21033;-82
2022/12/15 08:12:35;;;;;;;16.85;10.78;;;;;;;-1.41;95.39;99307.19;1784033;77;20982;-84
2022/12/15 08:15:02;;;;;;;21.02;12.05;;;;;;;-1.41;94.83;99324.13;1784602;78;21072;-82
2022/12/15 08:17:31;;;;;;;19.75;11.45;;;;;;;-1.36;95.09;99321.68;1784220;79;21154;-83
2022/12/15 08:19:59;;;;;;;17.45;12.13;;;;;;;-1.36;94.70;99319.08;1805987;78;20889;-82
2022/12/15 08:22:26;;;;;;;17.80;10.95;;;;;;;-1.39;94.59;99301.41;1775695;79;20999;-81
2022/12/15 08:24:52;;;;;;;16.95;11.38;;;;;;;-1.33;94.53;99336.64;1803560;79;21037;-84
2022/12/15 08:27:20;;;;;;;17.12;11.83;;;;;;;-1.33;94.65;99307.13;1802951;79;21025;-84
2022/12/15 08:29:49;;;;;;;18.62;11.83;;;;;;;-1.31;94.66;99290.95;1802954;79;21787;-83
2022/12/15 08:32:16;;;;;;;16.10;11.73;;;;;;;-1.30;94.69;99297.81;1803122;79;21031;-84
2022/12/15 08:34:43;;;;;;;16.40;11.90;;;;;;;-1.28;95.16;99315.48;1816639;78;21022;-84
2022/12/15 08:37:13;;;;;;;16.80;11.03;;;;;;;-1.29;94.65;99328.98;1819333;78;21552;-82
2022/12/15 08:39:44;;;;;;;16.60;12.07;;;;;;;-1.27;95.20;99316.69;1814693;78;21014;-82
2022/12/15 08:42:13;;;;;;;16.60;11.28;;;;;;;-1.20;95.26;99313.18;1790342;77;21017;-83
2022/12/15 08:44:40;;;;;;;16.87;10.38;;;;;;;-1.18;94.52;99321.73;1790220;77;21011;-82
2022/12/15 08:47:07;;;;;;;14.78;11.18;;;;;;;-1.20;94.07;99297.54;1789187;80;21014;-84
2022/12/15 08:49:35;;;;;;;17.45;11.35;;;;;;;-1.18;94.02;99325.64;1789384;80;20934;-83
2022/12/15 08:52:02;;;;;;;15.13;10.35;;;;;;;-1.19;94.05;99321.38;1806312;78;21446;-82
2022/12/15 08:54:29;;;;;;;15.15;9.55;;;;;;;-1.13;94.07;99333.17;1819459;78;21006;-83
2022/12/15 08:56:57;;;;;;;16.82;10.72;;;;;;;-1.15;94.12;99316.32;1819138;78;21025;-83
2022/12/15 08:59:24;;;;;;;16.65;11.22;;;;;;;-1.10;94.25;99307.73;1821784;78;21048;-83
2022/12/15 09:01:52;;;;;;;15.10;10.25;;;;;;;-1.09;94.56;99332.84;1820023;78;20982;-83
2022/12/15 09:04:18;;;;;;;14.18;9.45;;;;;;;-1.03;94.40;99334.20;1818995;78;21051;-83
2022/12/15 09:06:48;;;;;;;15.13;10.50;;;;;;;-0.99;94.34;99321.31;1778258;80;21175;-82
2022/12/15 09:09:14;;;;;;;12.18;9.40;;;;;;;-0.98;94.25;99326.91;1818897;78;21593;-82
2022/12/15 09:11:42;;;;;;;15.78;9.18;;;;;;;-0.89;94.21;99304.12;1754992;80;20986;-82
2022/12/15 09:14:13;;;;;;;13.50;9.05;;;;;;;-0.91;94.33;99311.66;1753893;80;21002;-82
2022/12/15 09:16:42;;;;;;;17.40;11.45;;;;;;;-0.97;94.65;99316.00;1781616;80;20986;-83
2022/12/15 09:19:13;;;;;;;14.23;9.78;;;;;;;-0.87;94.58;99303.98;1785387;78;21024;-81
2022/12/15 09:21:43;;;;;;;14.73;10.35;;;;;;;-0.83;94.48;99297.17;1783366;80;21010;-79
2022/12/15 09:24:12;;;;;;;14.07;9.80;;;;;;;-0.86;94.69;99309.59;1822368;78;21041;-82
2022/12/15 09:26:41;;;;;;;16.45;11.33;;;;;;;-0.80;94.71;99320.89;1820587;78;21042;-83
2022/12/15 09:29:06;;;;;;;16.75;11.63;;;;;;;-0.72;94.55;99291.19;1780479;80;21053;-83
2022/12/15 09:31:36;;;;;;;16.75;11.05;;;;;;;-0.73;94.79;99306.97;1819180;78;21441;-83
2022/12/15 09:34:02;;;;;;;15.90;10.72;;;;;;;-0.70;94.73;99301.52;1818723;77;21537;-83
2022/12/15 09:36:31;;;;;;;17.15;12.37;;;;;;;-0.66;94.75;99318.62;1819137;78;21041;-84
2022/12/15 09:39:00;;;;;;;15.13;10.80;;;;;;;-0.72;95.20;99314.66;1821914;79;21040;-84
2022/12/15 09:41:30;;;;;;;17.60;11.95;;;;;;;-0.68;95.26;99342.20;1822490;79;21038;-80
2022/12/15 09:44:12;;;;;;;17.55;11.90;;;;;;;-0.61;94.84;99318.67;1821853;78;21166;-83
2022/12/15 09:48:00;;;;;;;20.20;12.60;;;;;;;-0.66;95.36;99328.61;1871033;76;22450;-83
2022/12/15 09:50:38;;;;;;;22.20;14.13;;;;;;;-0.63;95.50;99315.81;1812284;78;20824;-83
2022/12/15 09:53:12;;;;;;;17.45;10.65;;;;;;;-0.57;95.53;99309.34;1827513;78;21074;-82
2022/12/15 09:55:41;;;;;;;15.63;10.40;;;;;;;-0.63;95.53;99329.69;1781526;80;21603;-82
2022/12/15 09:58:29;;;;;;;15.53;11.25;;;;;;;-0.58;95.57;99316.30;1753904;80;21024;-80
2022/12/15 10:01:00;;;;;;;19.62;13.58;;;;;;;-0.51;95.17;99320.64;1784733;79;20898;-81
2022/12/15 10:03:41;;;;;;;15.75;10.45;;;;;;;-0.58;95.15;99325.92;1799108;78;21037;-82
2022/12/15 10:06:18;;;;;;;16.82;12.13;;;;;;;-0.56;94.95;99330.55;1828666;78;21106;-82
2022/12/15 10:08:53;;;;;;;18.95;12.23;;;;;;;-0.56;95.10;99331.86;1808590;78;20843;-83
2022/12/15 10:11:45;;;;;;;17.80;12.33;;;;;;;-0.60;95.57;99314.28;1812839;78;20846;-82
2022/12/15 10:14:51;;;;;;;17.95;12.63;;;;;;;-0.53;95.46;99309.48;1796182;79;21042;-83
2022/12/15 10:17:42;;;;;;;22.77;14.90;;;;;;;-0.44;95.32;99323.19;1810268;78;20977;-83
2022/12/15 10:20:26;;;;;;;20.17;14.00;;;;;;;-0.52;95.69;99313.29;1805082;77;21265;-82
2022/12/15 10:22:53;;;;;;;20.08;13.85;;;;;;;-0.44;95.82;99324.50;1818564;78;21000;-82
2022/12/15 10:25:23;;;;;;;20.02;13.88;;;;;;;-0.37;95.48;99310.05;1786814;79;20989;-83
2022/12/15 10:28:30;;;;;;;18.02;12.45;;;;;;;-0.41;95.51;99308.16;1781374;79;21512;-83
2022/12/15 10:31:13;;;;;;;20.32;14.80;;;;;;;-0.39;95.45;99310.62;1800647;78;20997;-82
2022/12/15 10:33:41;;;;;;;20.55;13.60;;;;;;;-0.30;95.20;99319.12;1794457;78;21506;-83
2022/12/15 10:36:10;;;;;;;24.25;14.55;;;;;;;-0.33;95.55;99325.02;1826074;77;21108;-82
2022/12/15 10:38:41;;;;;;;24.72;16.70;;;;;;;-0.37;95.50;99320.97;1826607;77;20938;-83
2022/12/15 10:41:21;;;;;;;22.30;14.55;;;;;;;-0.30;95.48;99326.12;1826403;77;21053;-82
2022/12/15 10:43:50;;;;;;;28.60;17.82;;;;;;;-0.26;95.42;99316.64;1825187;78;21013;-82
2022/12/15 10:46:23;;;;;;;25.85;16.95;;;;;;;-0.27;95.63;99321.52;1824294;78;22246;-84
2022/12/15 10:48:59;;;;;;;28.27;17.30;;;;;;;-0.28;95.51;99329.45;1825232;78;21009;-84
2022/12/15 10:51:35;;;;;;;26.20;16.95;;;;;;;-0.16;95.39;99315.99;1825884;78;20970;-82
2022/12/15 10:54:14;;;;;;;30.80;17.85;;;;;;;-0.17;95.62;99310.39;1793833;78;21092;-84
2022/12/15 10:56:51;;;;;;;28.25;17.57;;;;;;;-0.25;95.71;99309.19;1825177;78;21020;-84
2022/12/15 10:59:35;;;;;;;26.15;17.10;;;;;;;-0.17;95.72;99309.95;1824024;78;21846;-83
2022/12/15 11:02:31;;;;;;;31.57;18.73;;;;;;;-0.11;95.72;99313.89;1824966;78;21037;-85
2022/12/15 11:05:00;;;;;;;;;;;;;;;-0.16;96.01;99316.82;1668319;85;21079;-85
2022/12/15 11:07:54;;;;;;;29.02;17.57;;;;;;;-0.15;96.14;99317.67;1650785;86;20621;-84
2022/12/15 11:12:50;;;;;;;32.78;18.87;;;;;;;-0.08;95.89;99313.20;1672120;84;21002;-85
2022/12/15 11:13:16;;;;;;;27.13;16.48;;;;;;;-0.10;96.23;99314.24;1636881;86;21144;-83
2022/12/15 11:15:51;;;;;;;23.42;15.38;;;;;;;-0.15;96.52;99325.03;1669597;85;21085;-86
2022/12/15 11:18:40;;;;;;;16.77;12.25;;;;;;;-0.04;96.46;99322.94;1694240;84;21047;-86
2022/12/15 11:21:20;;;;;;;15.93;10.00;;;;;;;0.05;96.27;99336.64;1698085;84;21085;-87
2022/12/15 11:24:12;;;;;;;17.55;11.60;;;;;;;-0.02;96.27;99337.57;1673299;83;21032;-87
2022/12/15 11:26:59;;;;;;;12.05;9.15;;;;;;;-0.02;96.50;99319.73;1695777;84;21561;-86
2022/12/15 11:29:34;;;;;;;13.83;10.10;;;;;;;0.13;96.28;99323.84;1695851;84;21573;-88
2022/12/15 11:32:03;;;;;;;16.82;10.63;;;;;;;0.12;96.46;99320.06;1666827;84;21054;-87
2022/12/15 11:34:36;;;;;;;15.58;9.98;;;;;;;0.06;96.82;99316.13;1698288;84;21050;-87
2022/12/15 11:37:26;;;;;;;14.70;10.53;;;;;;;0.12;96.54;99328.73;1697305;84;20971;-88
2022/12/15 11:40:29;;;;;;;13.62;9.53;;;;;;;0.23;96.31;99322.70;1651208;84;21132;-87
2022/12/15 11:43:26;;;;;;;15.23;9.90;;;;;;;0.22;96.44;99324.14;1668801;86;20974;-87
2022/12/15 11:46:23;;;;;;;13.18;8.63;;;;;;;0.14;96.73;99331.23;1670273;84;20943;-87
2022/12/15 11:49:24;;;;;;;13.10;8.03;;;;;;;0.23;96.68;99324.48;1670450;86;20987;-87
2022/12/15 11:52:17;;;;;;;13.80;8.53;;;;;;;0.28;96.58;99333.66;1616455;86;21029;-87
2022/12/15 11:54:54;;;;;;;17.02;10.58;;;;;;;0.20;96.80;99341.23;1638463;86;21187;-87
2022/12/15 11:57:56;;;;;;;12.15;8.65;;;;;;;0.21;96.70;99328.99;1641844;86;21474;-87
2022/12/15 12:00:24;;;;;;;17.42;11.28;;;;;;;0.31;96.55;99339.13;1693383;84;21042;-87
2022/12/15 12:03:48;;;;;;;17.75;11.88;;;;;;;0.24;96.82;99343.16;1658510;86;21096;-88
2022/12/15 12:06:44;;;;;;;13.15;8.15;;;;;;;0.18;97.07;99345.73;1666861;85;20940;-87
2022/12/15 12:09:28;;;;;;;13.65;10.48;;;;;;;0.29;96.93;99346.24;1636513;86;21074;-86
2022/12/15 12:12:15;;;;;;;13.32;7.72;;;;;;;0.29;96.96;99354.08;1663924;86;21042;-89
2022/12/15 12:15:14;;;;;;;14.30;9.35;;;;;;;0.21;97.10;99349.89;1661886;86;21031;-86
2022/12/15 12:17:54;;;;;;;15.45;10.32;;;;;;;0.24;97.03;99326.17;1612821;87;21022;-85
2022/12/15 12:20:30;;;;;;;24.10;15.18;;;;;;;0.27;97.38;99328.09;1636908;87;21078;-84
2022/12/15 12:23:04;;;;;;;18.92;12.73;;;;;;;0.22;97.80;99343.73;1653976;86;21369;-85
2022/12/15 12:25:46;;;;;;;14.80;10.72;;;;;;;0.21;98.08;99331.61;1665768;86;21035;-87
2022/12/15 12:28:25;;;;;;;18.98;12.43;;;;;;;0.34;97.79;99349.36;1640631;86;21061;-87
2022/12/15 12:31:16;;;;;;;23.85;13.70;;;;;;;0.33;97.84;99345.92;1636028;86;21077;-87
2022/12/15 12:34:00;;;;;;;;;;;;;;;;;;;;;
2022/12/15 12:36:44;;;;;;;23.70;13.55;;;;;;;0.28;97.56;99350.64;1640098;87;20987;-87
2022/12/15 12:39:37;;;;;;;;;;;;;;;;;;;;;
2022/12/15 12:42:44;;;;;;;19.32;11.55;;;;;;;0.31;97.57;99357.41;1635325;87;21078;-88
2022/12/15 12:45:31;;;;;;;15.32;10.10;;;;;;;0.26;97.73;99345.17;1635548;87;21018;-85
2022/12/15 12:48:20;;;;;;;14.98;10.03;;;;;;;0.37;97.33;99351.28;1626782;87;21069;-84
2022/12/15 12:51:11;;;;;;;13.22;8.95;;;;;;;0.41;97.17;99363.66;1638494;86;21074;-86
2022/12/15 12:53:42;;;;;;;11.63;8.53;;;;;;;0.33;96.97;99382.98;1551046;89;21113;-85
2022/12/15 12:56:46;;;;;;;11.20;8.08;;;;;;;0.36;96.82;99352.70;1607655;87;21043;-85
2022/12/15 12:59:35;;;;;;;13.18;9.03;;;;;;;0.44;96.72;99356.05;1659644;82;20987;-85
2022/12/15 13:02:28;;;;;;;12.43;8.23;;;;;;;0.36;96.48;99373.59;1692951;83;21033;-85
2022/12/15 13:05:19;;;;;;;13.83;10.00;;;;;;;0.36;96.39;99363.14;1717672;82;21068;-85
2022/12/15 13:08:09;;;;;;;14.05;9.70;;;;;;;0.42;96.02;99376.23;1697104;82;20884;-86
2022/12/15 13:10:42;;;;;;;13.68;10.08;;;;;;;0.31;96.29;99367.41;1717618;82;21042;-85
2022/12/15 13:13:32;;;;;;;12.53;10.10;;;;;;;0.24;96.62;99387.09;1699848;83;21030;-85
2022/12/15 13:16:24;;;;;;;15.35;10.35;;;;;;;0.34;96.32;99380.72;1718474;83;21029;-83
2022/12/15 13:18:55;;;;;;;;;;;;;;;0.34;96.30;99378.11;1719405;83;21011;-83
2022/12/15 13:21:50;;;;;;;12.15;8.40;;;;;;;0.22;96.55;99385.06;1714125;81;20208;-82
2022/12/15 13:24:33;;;;;;;11.15;9.23;;;;;;;0.22;96.90;99382.45;1702218;83;20998;-84
2022/12/15 13:27:18;;;;;;;12.33;9.48;;;;;;;0.29;96.73;99399.80;1692100;84;20966;-80
2022/12/15 13:30:08;;;;;;;13.38;9.50;;;;;;;0.18;97.19;99413.18;1695581;84;21036;-82
2022/12/15 13:32:38;;;;;;;12.60;9.83;;;;;;;0.10;98.22;99409.47;1697469;82;21228;-82
2022/12/15 13:35:16;;;;;;;12.82;9.38;;;;;;;0.17;97.92;99411.98;1715394;82;21016;-79
2022/12/15 13:37:58;;;;;;;13.53;10.10;;;;;;;0.22;97.76;99407.27;1661168;83;21101;-81
2022/12/15 13:40:41;;;;;;;13.78;10.40;;;;;;;0.17;98.05;99408.06;1695580;84;21022;-80
2022/12/15 13:43:30;;;;;;;13.58;9.78;;;;;;;0.10;98.33;99423.83;1704502;83;21056;-81
2022/12/15 13:46:04;;;;;;;16.48;11.55;;;;;;;0.12;98.29;99407.09;1714322;83;21266;-81
2022/12/15 13:48:47;;;;;;;13.55;10.00;;;;;;;0.19;98.00;99418.78;1717140;82;21114;-81
2022/12/15 13:51:33;;;;;;;19.30;11.57;;;;;;;0.11;98.10;99415.86;1710240;83;21015;-84
2022/12/15 13:54:17;;;;;;;15.28;11.35;;;;;;;0.05;98.22;99433.76;1706041;84;21501;-82
2022/12/15 13:57:00;;;;;;;16.07;10.88;;;;;;;0.12;98.26;99402.34;1707190;83;21030;-82
2022/12/15 13:59:46;;;;;;;15.88;11.50;;;;;;;0.14;98.10;99421.36;1710765;82;21073;-80
2022/12/15 14:02:31;;;;;;;16.87;11.60;;;;;;;0.07;98.41;99417.50;1711344;83;20975;-82
2022/12/15 14:05:21;;;;;;;16.17;11.10;;;;;;;0.09;98.46;99420.84;1741954;81;21214;-83
2022/12/15 14:07:56;;;;;;;16.20;11.65;;;;;;;0.17;98.21;99407.61;1729968;81;20967;-83
2022/12/15 14:10:44;;;;;;;19.15;12.18;;;;;;;0.13;98.43;99411.36;1711741;82;21595;-83
2022/12/15 14:13:35;;;;;;;18.85;11.55;;;;;;;0.05;98.51;99413.69;1711785;84;21152;-84
2022/12/15 14:16:18;;;;;;;27.07;14.07;;;;;;;0.13;98.08;99430.13;1718882;82;20999;-84
2022/12/15 14:18:47;;;;;;;15.95;12.05;;;;;;;0.14;98.05;99418.27;1682510;84;21152;-83